Time;durP1;ratioP1;P1;durP2;ratioP2;P2;SDS_P1;SDS_P2;PMS_P1;PMS_P2;Temp;Humidity;BMP_temperature;BMP_pressure;BME280_temperature;BME280_humidity;BME280_pressure;Samples;Min_cycle;Max_cycle;Signal;HPM_P1;HPM_P2
2022/03/09 00:01:06;;;;;;;3.97;3.55;;;19.10;70.60;;;;;;4228233;28;20217;-71
2022/03/09 00:03:08;;;;;;;4.10;3.25;;;19.10;70.60;;;;;;4229514;28;20991;-72
2022/03/09 00:05:11;;;;;;;4.40;3.50;;;19.10;70.60;;;;;;4229477;28;20272;-72
2022/03/09 00:07:13;;;;;;;4.97;3.58;;;19.10;70.70;;;;;;4228761;28;20275;-72
2022/03/09 00:09:17;;;;;;;4.07;3.33;;;19.00;70.50;;;;;;4228610;28;20243;-72
2022/03/09 00:11:20;;;;;;;4.72;3.60;;;19.00;70.50;;;;;;4227036;28;20218;-72
2022/03/09 00:13:22;;;;;;;4.47;3.53;;;19.00;70.50;;;;;;4228956;28;20667;-72
2022/03/09 00:15:27;;;;;;;4.38;3.47;;;19.00;70.60;;;;;;4226620;28;20272;-72
2022/03/09 00:17:30;;;;;;;4.75;3.13;;;19.00;70.50;;;;;;4228883;28;20234;-72
2022/03/09 00:19:32;;;;;;;4.47;3.38;;;19.00;70.40;;;;;;4228446;28;20282;-72
2022/03/09 00:21:35;;;;;;;3.40;3.08;;;19.00;70.40;;;;;;4227011;28;20638;-72
2022/03/09 00:23:37;;;;;;;3.88;3.17;;;19.00;70.50;;;;;;4228805;28;20210;-72
2022/03/09 00:25:41;;;;;;;3.63;3.30;;;19.00;70.50;;;;;;4228246;28;20294;-72
2022/03/09 00:27:43;;;;;;;4.00;3.58;;;19.00;70.50;;;;;;4224236;28;20275;-72
2022/03/09 00:29:45;;;;;;;4.13;3.53;;;19.00;70.40;;;;;;4224097;28;20635;-72
2022/03/09 00:31:48;;;;;;;3.83;3.00;;;18.90;70.30;;;;;;4227666;28;20214;-72
2022/03/09 00:33:50;;;;;;;4.13;3.35;;;18.90;70.30;;;;;;4229051;28;20275;-72
2022/03/09 00:35:52;;;;;;;3.65;3.28;;;18.90;70.30;;;;;;4227535;28;20707;-72
2022/03/09 00:37:55;;;;;;;3.90;3.50;;;18.90;70.30;;;;;;4229105;28;20266;-72
2022/03/09 00:39:57;;;;;;;3.72;3.20;;;18.90;70.30;;;;;;4228958;28;20258;-72
2022/03/09 00:42:01;;;;;;;4.78;3.95;;;18.90;70.30;;;;;;4228905;28;20261;-72
2022/03/09 00:44:03;;;;;;;4.32;3.67;;;18.90;70.20;;;;;;4225620;28;20217;-72
2022/03/09 00:46:06;;;;;;;4.82;3.60;;;18.90;70.30;;;;;;4228170;28;20213;-72
2022/03/09 00:48:08;;;;;;;3.38;3.08;;;18.90;70.30;;;;;;4227221;28;20222;-72
2022/03/09 00:50:10;;;;;;;4.25;3.28;;;18.90;70.30;;;;;;4228099;28;20278;-72
2022/03/09 00:52:13;;;;;;;4.78;3.58;;;18.90;70.30;;;;;;4227882;28;20222;-72
2022/03/09 00:54:15;;;;;;;4.72;3.60;;;18.90;70.30;;;;;;4226678;28;20287;-72
2022/03/09 00:56:18;;;;;;;3.70;3.30;;;18.90;70.30;;;;;;4227487;28;20264;-72
2022/03/09 00:58:22;;;;;;;4.70;3.53;;;18.90;70.20;;;;;;4228677;28;20210;-72
2022/03/09 01:00:24;;;;;;;4.07;3.42;;;18.90;70.40;;;;;;4228392;28;20262;-71
2022/03/09 01:02:27;;;;;;;4.95;3.00;;;18.80;70.10;;;;;;4227029;28;20255;-72
2022/03/09 01:04:29;;;;;;;4.05;3.58;;;18.80;70.10;;;;;;4228341;28;20218;-72
2022/03/09 01:06:31;;;;;;;4.28;3.58;;;18.80;70.10;;;;;;4228915;28;20263;-72
2022/03/09 01:08:34;;;;;;;4.20;3.55;;;18.80;70.20;;;;;;4228168;28;20721;-71
2022/03/09 01:10:36;;;;;;;4.53;3.55;;;18.80;70.10;;;;;;4227615;28;20222;-72
2022/03/09 01:12:39;;;;;;;4.80;3.90;;;18.80;70.10;;;;;;4226784;28;20262;-74
2022/03/09 01:14:43;;;;;;;4.38;3.40;;;18.80;70.10;;;;;;4226961;28;20237;-72
2022/03/09 01:16:45;;;;;;;4.30;3.30;;;18.80;70.10;;;;;;4224193;28;20233;-72
2022/03/09 01:18:47;;;;;;;3.85;3.33;;;18.80;70.00;;;;;;4223682;28;20213;-72
2022/03/09 01:20:50;;;;;;;4.00;3.33;;;18.80;70.00;;;;;;4228262;28;20209;-74
2022/03/09 01:22:52;;;;;;;4.80;3.50;;;18.80;70.00;;;;;;4226662;28;20255;-72
2022/03/09 01:24:55;;;;;;;4.07;3.35;;;18.80;70.10;;;;;;4225700;28;20262;-72
2022/03/09 01:26:57;;;;;;;4.28;3.88;;;18.80;70.00;;;;;;4228279;28;20213;-72
2022/03/09 01:28:59;;;;;;;5.00;3.80;;;18.70;69.80;;;;;;4226919;28;20619;-73
2022/03/09 01:31:03;;;;;;;3.58;3.28;;;18.80;70.10;;;;;;4227122;28;20271;-72
2022/03/09 01:33:05;;;;;;;5.75;3.70;;;18.70;69.90;;;;;;4223577;28;20229;-72
2022/03/09 01:35:08;;;;;;;4.35;3.90;;;18.70;69.90;;;;;;4220830;28;20334;-72
2022/03/09 01:37:10;;;;;;;5.63;3.60;;;18.70;69.90;;;;;;4227429;28;20233;-73
2022/03/09 01:39:13;;;;;;;4.00;3.60;;;18.70;70.00;;;;;;4227842;28;20263;-72
2022/03/09 01:41:15;;;;;;;4.03;3.40;;;18.70;69.90;;;;;;4226471;28;20217;-72
2022/03/09 01:43:18;;;;;;;4.68;3.72;;;18.70;69.80;;;;;;4227388;28;20221;-72
2022/03/09 01:45:20;;;;;;;5.35;3.45;;;18.70;69.90;;;;;;4227678;28;20214;-72
2022/03/09 01:47:24;;;;;;;3.80;3.15;;;18.70;69.90;;;;;;4227798;28;20727;-72
2022/03/09 01:49:27;;;;;;;3.67;3.38;;;18.70;70.00;;;;;;4227911;28;20278;-72
2022/03/09 01:51:29;;;;;;;3.72;3.15;;;18.60;69.80;;;;;;4220719;28;20214;-72
2022/03/09 01:53:31;;;;;;;3.45;3.08;;;18.60;69.70;;;;;;4223062;28;20218;-72
2022/03/09 01:55:34;;;;;;;4.65;3.95;;;18.70;69.80;;;;;;4227355;28;20267;-72
2022/03/09 01:57:36;;;;;;;4.22;3.67;;;18.70;69.80;;;;;;4229025;27;20287;-72
2022/03/09 01:59:39;;;;;;;4.38;3.60;;;18.70;69.80;;;;;;4226939;28;20214;-72
2022/03/09 02:01:41;;;;;;;4.22;3.58;;;18.60;69.70;;;;;;4225350;28;20271;-72
2022/03/09 02:03:45;;;;;;;4.47;3.65;;;18.60;69.70;;;;;;4227630;28;20660;-72
2022/03/09 02:05:47;;;;;;;4.00;3.60;;;18.60;69.70;;;;;;4227586;28;20268;-72
2022/03/09 02:10:10;;;;;;;4.60;3.80;;;18.60;69.80;;;;;;4219832;28;20198;-72
2022/03/09 02:12:15;;;;;;;4.50;3.70;;;18.60;69.70;;;;;;4222552;28;20271;-72
2022/03/09 02:14:31;;;;;;;4.35;3.53;;;18.60;69.70;;;;;;4227734;28;20600;-72
2022/03/09 02:16:34;;;;;;;4.45;3.70;;;18.60;69.60;;;;;;4225369;28;20642;-72
2022/03/09 02:18:36;;;;;;;4.18;3.78;;;18.60;69.70;;;;;;4225032;28;20210;-72
2022/03/09 02:20:43;;;;;;;4.32;3.35;;;18.60;69.60;;;;;;4227760;28;20214;-72
2022/03/09 02:22:47;;;;;;;4.18;3.78;;;18.60;69.50;;;;;;4229418;28;20228;-72
2022/03/09 02:24:50;;;;;;;3.65;3.17;;;18.60;69.60;;;;;;4230020;28;20214;-72
2022/03/09 02:26:53;;;;;;;4.47;3.63;;;18.60;69.70;;;;;;4229383;28;20263;-72
2022/03/09 02:28:55;;;;;;;4.93;3.90;;;18.50;69.60;;;;;;4230487;28;20264;-72
2022/03/09 02:30:58;;;;;;;5.03;3.30;;;18.60;69.70;;;;;;4229797;28;20218;-72
2022/03/09 02:33:00;;;;;;;4.70;3.35;;;18.60;69.70;;;;;;4228074;28;20270;-72
2022/03/09 02:35:02;;;;;;;3.97;3.58;;;18.50;69.50;;;;;;4229813;28;20306;-72
2022/03/09 02:37:05;;;;;;;3.95;3.30;;;18.50;69.50;;;;;;4230668;28;20213;-73
2022/03/09 02:39:09;;;;;;;4.70;3.78;;;18.50;69.60;;;;;;4230210;28;20217;-72
2022/03/09 02:41:11;;;;;;;3.45;3.15;;;18.50;69.50;;;;;;4230349;28;20278;-72
2022/03/09 02:43:13;;;;;;;4.45;3.30;;;18.50;69.50;;;;;;4230633;28;20258;-73
2022/03/09 02:45:17;;;;;;;4.03;3.63;;;18.50;69.50;;;;;;4230672;28;20658;-72
2022/03/09 02:47:19;;;;;;;5.25;3.55;;;18.50;69.50;;;;;;4230135;28;20225;-72
2022/03/09 02:49:21;;;;;;;3.92;3.50;;;18.50;69.40;;;;;;4230687;28;20226;-72
2022/03/09 02:51:24;;;;;;;3.80;3.42;;;18.50;69.50;;;;;;4230295;28;20285;-72
2022/03/09 02:53:26;;;;;;;4.15;3.47;;;18.50;69.60;;;;;;4229715;28;20271;-73
2022/03/09 02:55:30;;;;;;;3.85;3.33;;;18.50;69.40;;;;;;4228110;28;20246;-72
2022/03/09 02:57:32;;;;;;;3.88;3.30;;;18.40;69.30;;;;;;4230316;28;20275;-72
2022/03/09 02:59:35;;;;;;;4.50;3.47;;;18.50;69.40;;;;;;4230561;28;20221;-72
2022/03/09 03:01:38;;;;;;;4.15;3.20;;;18.40;69.40;;;;;;4229647;28;20266;-72
2022/03/09 03:03:40;;;;;;;5.45;3.65;;;18.40;69.30;;;;;;4230179;28;20275;-72
2022/03/09 03:05:42;;;;;;;3.65;3.35;;;18.50;69.40;;;;;;4224621;28;20209;-72
2022/03/09 03:07:45;;;;;;;3.85;3.47;;;18.40;69.40;;;;;;4227969;28;20718;-73
2022/03/09 03:09:47;;;;;;;4.30;3.72;;;18.40;69.20;;;;;;4224791;28;20239;-72
2022/03/09 03:11:51;;;;;;;3.90;3.50;;;18.40;69.20;;;;;;4230282;28;20662;-72
2022/03/09 03:13:53;;;;;;;6.03;3.90;;;18.40;69.30;;;;;;4229656;28;21060;-73
2022/03/09 03:15:55;;;;;;;3.88;3.30;;;18.40;69.30;;;;;;4228209;28;20242;-72
2022/03/09 03:17:58;;;;;;;5.00;3.47;;;18.40;69.10;;;;;;4226263;28;20282;-74
2022/03/09 03:20:00;;;;;;;3.72;3.40;;;18.40;69.30;;;;;;4229198;28;20262;-72
2022/03/09 03:22:03;;;;;;;4.60;3.53;;;18.40;69.30;;;;;;4228980;28;20214;-73
2022/03/09 03:24:06;;;;;;;3.83;3.05;;;18.40;69.20;;;;;;4225267;28;20218;-72
2022/03/09 03:26:08;;;;;;;3.92;3.47;;;18.40;69.20;;;;;;4223740;28;20229;-73
2022/03/09 03:28:12;;;;;;;4.22;3.70;;;18.40;69.20;;;;;;4227206;28;20221;-72
2022/03/09 03:30:14;;;;;;;4.75;3.90;;;18.40;69.50;;;;;;4228548;28;20651;-72
2022/03/09 03:32:16;;;;;;;4.80;3.40;;;18.40;69.20;;;;;;4228774;28;20654;-72
2022/03/09 03:34:19;;;;;;;4.32;3.75;;;18.40;69.20;;;;;;4227168;28;20214;-72
2022/03/09 03:36:21;;;;;;;5.38;3.70;;;18.30;69.10;;;;;;4226632;28;20210;-72
2022/03/09 03:38:23;;;;;;;3.78;3.10;;;18.30;69.10;;;;;;4227369;28;20217;-72
2022/03/09 03:40:26;;;;;;;4.57;3.97;;;18.30;69.00;;;;;;4227981;28;20213;-72
2022/03/09 03:42:28;;;;;;;4.72;3.72;;;18.30;69.10;;;;;;4228769;28;20266;-72
2022/03/09 03:44:32;;;;;;;3.83;3.40;;;18.30;69.10;;;;;;4222973;28;20274;-72
2022/03/09 03:46:35;;;;;;;4.03;3.30;;;18.40;69.10;;;;;;4225435;28;20782;-72
2022/03/09 03:48:37;;;;;;;4.20;3.55;;;18.30;69.00;;;;;;4227936;28;20221;-72
2022/03/09 03:50:40;;;;;;;4.00;3.60;;;18.30;69.00;;;;;;4227440;28;20221;-72
2022/03/09 03:52:42;;;;;;;4.15;3.47;;;18.30;69.10;;;;;;4227298;28;20270;-72
2022/03/09 03:54:44;;;;;;;3.38;3.08;;;18.30;69.00;;;;;;4228332;28;20274;-72
2022/03/09 03:56:47;;;;;;;3.70;3.35;;;18.30;69.00;;;;;;4228387;28;20214;-73
2022/03/09 03:58:50;;;;;;;3.67;3.17;;;18.30;69.00;;;;;;4227864;28;20259;-72
2022/03/09 04:00:53;;;;;;;4.10;3.40;;;18.30;69.00;;;;;;4228841;28;20259;-72
2022/03/09 04:02:56;;;;;;;4.60;3.28;;;18.30;68.90;;;;;;4223427;28;20371;-72
2022/03/09 04:04:58;;;;;;;4.47;3.47;;;18.30;68.90;;;;;;4222525;28;20223;-72
2022/03/09 04:07:00;;;;;;;3.83;3.28;;;18.30;68.80;;;;;;4227656;28;20218;-72
2022/03/09 04:09:03;;;;;;;4.07;3.40;;;18.30;68.80;;;;;;4228130;28;20243;-72
2022/03/09 04:11:05;;;;;;;4.00;3.33;;;18.30;68.90;;;;;;4228218;28;20282;-72
2022/03/09 04:13:07;;;;;;;4.38;3.60;;;18.30;68.90;;;;;;4228814;28;20221;-72
2022/03/09 04:15:10;;;;;;;4.68;3.58;;;18.30;68.80;;;;;;4228363;28;20318;-72
2022/03/09 04:17:14;;;;;;;4.57;3.47;;;18.30;68.80;;;;;;4184411;28;1251836;-72
2022/03/09 04:19:16;;;;;;;4.95;3.45;;;18.20;68.70;;;;;;4227144;28;20636;-72
2022/03/09 04:21:19;;;;;;;3.83;3.33;;;18.20;68.80;;;;;;4221988;28;20213;-72
2022/03/09 04:23:21;;;;;;;4.07;3.53;;;18.20;68.70;;;;;;4223734;28;20222;-72
2022/03/09 04:25:23;;;;;;;4.00;3.58;;;18.20;68.60;;;;;;4226931;28;20240;-72
2022/03/09 04:27:26;;;;;;;5.63;3.50;;;18.20;68.70;;;;;;4228009;28;20677;-72
2022/03/09 04:29:28;;;;;;;3.92;3.40;;;18.20;68.60;;;;;;4228792;28;20624;-72
2022/03/09 04:31:30;;;;;;;4.00;3.60;;;18.20;68.70;;;;;;4227634;28;20279;-72
2022/03/09 04:33:34;;;;;;;3.95;3.33;;;18.20;68.60;;;;;;4222440;28;20210;-73
2022/03/09 04:35:36;;;;;;;3.80;3.25;;;18.20;68.60;;;;;;4227276;28;20286;-72
2022/03/09 04:37:39;;;;;;;3.80;3.22;;;18.20;68.70;;;;;;4227316;28;20277;-72
2022/03/09 04:39:41;;;;;;;3.28;2.97;;;18.20;68.70;;;;;;4229017;28;20544;-72
2022/03/09 04:41:43;;;;;;;4.78;3.60;;;18.20;68.70;;;;;;4228288;28;20222;-72
2022/03/09 04:43:46;;;;;;;4.20;3.30;;;18.20;68.70;;;;;;4227406;28;20514;-72
2022/03/09 04:45:48;;;;;;;3.58;3.28;;;18.20;68.70;;;;;;4227619;28;20206;-72
2022/03/09 04:47:50;;;;;;;3.53;3.15;;;18.20;68.50;;;;;;4228468;28;20217;-72
2022/03/09 04:49:54;;;;;;;3.53;3.22;;;18.10;68.50;;;;;;4228390;28;20593;-72
2022/03/09 04:51:56;;;;;;;4.20;3.42;;;18.20;68.60;;;;;;4228892;28;20658;-72
2022/03/09 04:53:58;;;;;;;4.13;3.35;;;18.20;68.60;;;;;;4226904;28;20210;-72
2022/03/09 04:56:01;;;;;;;4.97;3.72;;;18.10;68.50;;;;;;4227490;28;20282;-73
2022/03/09 04:58:03;;;;;;;3.83;3.42;;;18.10;68.40;;;;;;4228193;28;20286;-72
2022/03/09 05:00:07;;;;;;;4.32;3.22;;;18.10;68.50;;;;;;4225879;28;20263;-72
2022/03/09 05:02:09;;;;;;;3.50;3.17;;;18.10;68.60;;;;;;4227733;28;20213;-75
2022/03/09 05:04:11;;;;;;;5.00;3.35;;;18.10;68.50;;;;;;4228908;28;20209;-75
2022/03/09 05:06:16;;;;;;;4.55;3.08;;;18.10;68.40;;;;;;4226355;28;20716;-75
2022/03/09 05:08:18;;;;;;;3.58;3.28;;;18.10;68.50;;;;;;4228134;28;20222;-75
2022/03/09 05:10:21;;;;;;;3.90;3.25;;;18.10;68.50;;;;;;4228409;28;20213;-75
2022/03/09 05:12:23;;;;;;;3.92;3.30;;;18.10;68.50;;;;;;4228519;28;20255;-75
2022/03/09 05:14:25;;;;;;;3.35;3.05;;;18.10;68.30;;;;;;4228495;28;20639;-75
2022/03/09 05:16:27;;;;;;;4.13;3.38;;;18.10;68.30;;;;;;4227821;28;20233;-75
2022/03/09 05:18:30;;;;;;;4.70;3.67;;;18.10;68.30;;;;;;4225972;28;20210;-75
2022/03/09 05:20:32;;;;;;;3.85;3.35;;;18.10;68.40;;;;;;4222661;28;20268;-75
2022/03/09 05:22:36;;;;;;;3.75;3.45;;;18.10;68.50;;;;;;4227986;28;20210;-75
2022/03/09 05:24:38;;;;;;;4.15;3.35;;;18.10;68.30;;;;;;4227820;28;20264;-75
2022/03/09 05:26:41;;;;;;;3.60;3.30;;;18.10;68.20;;;;;;4229266;27;20674;-75
2022/03/09 05:28:43;;;;;;;5.50;3.25;;;18.00;68.30;;;;;;4227889;28;20266;-75
2022/03/09 05:30:45;;;;;;;3.47;3.13;;;18.00;68.30;;;;;;4227742;28;20647;-75
2022/03/09 05:32:48;;;;;;;3.47;3.17;;;18.00;68.20;;;;;;4227168;28;20210;-75
2022/03/09 05:34:51;;;;;;;3.30;3.00;;;18.00;68.20;;;;;;4226782;28;20225;-75
2022/03/09 05:36:53;;;;;;;3.90;3.40;;;18.10;68.20;;;;;;4227064;28;20290;-75
2022/03/09 05:38:57;;;;;;;3.63;3.33;;;18.00;68.10;;;;;;4226946;28;20213;-75
2022/03/09 05:40:59;;;;;;;4.72;3.58;;;18.00;68.20;;;;;;4227065;28;20214;-75
2022/03/09 05:43:01;;;;;;;3.70;3.40;;;18.00;68.10;;;;;;4225978;28;20263;-76
2022/03/09 05:45:05;;;;;;;3.35;3.05;;;18.00;68.20;;;;;;4227414;28;20213;-75
2022/03/09 05:47:08;;;;;;;3.85;3.17;;;18.00;68.20;;;;;;4227435;28;20221;-75
2022/03/09 05:49:10;;;;;;;4.25;3.45;;;18.00;68.20;;;;;;4225191;28;20226;-75
2022/03/09 05:51:12;;;;;;;3.90;3.30;;;18.00;68.20;;;;;;4227459;28;20214;-75
2022/03/09 05:53:15;;;;;;;4.60;3.55;;;18.00;68.30;;;;;;4224060;28;20560;-75
2022/03/09 05:55:18;;;;;;;4.30;3.90;;;17.90;67.80;;;;;;4226242;28;20221;-75
2022/03/09 05:57:22;;;;;;;3.85;3.22;;;17.90;67.60;;;;;;4226246;28;20283;-75
2022/03/09 05:59:24;;;;;;;4.65;3.72;;;17.90;67.90;;;;;;4227503;28;20221;-75
2022/03/09 06:01:27;;;;;;;3.55;3.25;;;17.90;67.70;;;;;;4226463;28;20225;-75
2022/03/09 06:03:29;;;;;;;4.70;3.50;;;17.90;67.70;;;;;;4226937;28;20662;-75
2022/03/09 06:05:31;;;;;;;4.63;3.65;;;18.00;68.50;;;;;;4227720;28;20622;-75
2022/03/09 06:07:34;;;;;;;4.72;3.80;;;18.00;67.50;;;;;;4227773;28;20210;-75
2022/03/09 06:09:36;;;;;;;4.93;4.15;;;18.00;68.20;;;;;;4224511;28;20226;-75
2022/03/09 06:11:41;;;;;;;3.85;3.45;;;18.10;68.10;;;;;;4226593;28;20222;-75
2022/03/09 06:13:43;;;;;;;5.00;4.05;;;18.10;68.70;;;;;;4226151;28;20615;-75
2022/03/09 06:15:45;;;;;;;4.10;3.45;;;18.10;68.80;;;;;;4214566;28;20615;-75
2022/03/09 06:17:50;;;;;;;5.65;3.67;;;18.10;69.40;;;;;;4226530;28;20242;-75
2022/03/09 06:19:52;;;;;;;4.18;3.70;;;18.20;69.50;;;;;;4226651;28;20661;-75
2022/03/09 06:21:55;;;;;;;4.28;3.65;;;18.10;69.10;;;;;;4224594;28;20274;-75
2022/03/09 06:23:57;;;;;;;4.20;3.70;;;18.10;69.50;;;;;;4224724;28;20218;-75
2022/03/09 06:25:59;;;;;;;5.18;3.53;;;18.20;69.80;;;;;;4226195;28;20267;-75
2022/03/09 06:28:04;;;;;;;5.20;3.85;;;18.20;70.30;;;;;;4227406;28;20214;-75
2022/03/09 06:30:07;;;;;;;6.85;4.30;;;18.20;70.50;;;;;;4226010;28;20214;-75
2022/03/09 06:32:10;;;;;;;3.78;3.47;;;18.20;70.80;;;;;;4226390;28;20243;-75
2022/03/09 06:34:12;;;;;;;4.95;3.75;;;18.20;70.80;;;;;;4227182;28;20286;-75
2022/03/09 06:36:14;;;;;;;4.47;3.78;;;18.20;70.50;;;;;;4227562;28;20217;-75
2022/03/09 06:38:17;;;;;;;4.13;3.33;;;18.20;71.50;;;;;;4227407;28;20329;-75
2022/03/09 06:40:21;;;;;;;5.80;3.83;;;18.30;71.40;;;;;;4226208;28;20214;-75
2022/03/09 06:42:23;;;;;;;4.35;3.30;;;18.30;71.20;;;;;;4224986;28;20259;-75
2022/03/09 06:44:27;;;;;;;4.03;3.63;;;18.30;71.20;;;;;;4227347;28;20345;-75
2022/03/09 06:46:29;;;;;;;6.00;3.75;;;18.30;71.40;;;;;;4227762;28;20263;-75
2022/03/09 06:48:32;;;;;;;4.25;3.85;;;18.30;72.00;;;;;;4227196;28;20214;-75
2022/03/09 06:50:34;;;;;;;6.05;3.95;;;18.30;71.40;;;;;;4227282;28;20259;-75
2022/03/09 06:52:38;;;;;;;5.28;3.97;;;18.40;71.20;;;;;;4225746;28;20666;-75
2022/03/09 06:54:40;;;;;;;4.35;3.88;;;18.30;72.90;;;;;;4226001;28;20267;-75
2022/03/09 06:56:42;;;;;;;4.88;3.78;;;18.40;72.10;;;;;;4223598;28;20234;-75
2022/03/09 06:58:45;;;;;;;3.72;3.33;;;18.40;72.20;;;;;;4225796;28;20265;-75
2022/03/09 07:00:49;;;;;;;5.25;4.30;;;18.40;72.30;;;;;;4226720;28;20677;-75
2022/03/09 07:02:51;;;;;;;5.22;4.00;;;18.40;72.70;;;;;;4226191;28;20229;-75
2022/03/09 07:04:53;;;;;;;4.35;3.90;;;18.40;72.30;;;;;;4224428;28;20260;-75
2022/03/09 07:06:56;;;;;;;4.68;3.80;;;18.40;71.40;;;;;;4221752;28;20226;-75
2022/03/09 07:08:58;;;;;;;3.85;3.33;;;18.40;72.60;;;;;;4224318;28;20222;-75
2022/03/09 07:11:01;;;;;;;4.72;4.10;;;18.40;73.40;;;;;;4229930;28;20719;-75
2022/03/09 07:13:03;;;;;;;3.85;3.45;;;18.40;72.90;;;;;;4229888;28;20713;-75
2022/03/09 07:15:06;;;;;;;5.18;4.13;;;18.40;73.20;;;;;;4227519;28;20647;-74
2022/03/09 07:17:10;;;;;;;4.53;3.88;;;18.40;72.70;;;;;;4229536;28;20806;-75
2022/03/09 07:19:13;;;;;;;4.82;3.92;;;18.40;73.20;;;;;;4226665;28;20267;-75
2022/03/09 07:21:15;;;;;;;5.60;3.70;;;18.40;73.70;;;;;;4229807;27;20210;-75
2022/03/09 07:23:17;;;;;;;5.20;4.50;;;18.40;73.60;;;;;;4228782;28;20222;-75
2022/03/09 07:25:20;;;;;;;4.80;3.63;;;18.50;74.10;;;;;;4228221;28;20267;-75
2022/03/09 07:27:22;;;;;;;4.60;3.78;;;18.50;74.90;;;;;;4228318;28;20266;-75
2022/03/09 07:29:24;;;;;;;4.78;3.97;;;18.50;74.30;;;;;;4230232;28;20217;-75
2022/03/09 07:31:27;;;;;;;4.70;3.50;;;18.50;74.90;;;;;;4230242;28;20229;-75
2022/03/09 07:33:31;;;;;;;4.35;3.72;;;18.50;75.10;;;;;;4226297;28;20221;-75
2022/03/09 07:35:34;;;;;;;5.10;3.80;;;18.50;75.40;;;;;;4229622;28;20270;-75
2022/03/09 07:37:36;;;;;;;4.13;3.60;;;18.50;75.70;;;;;;4229616;28;20230;-75
2022/03/09 07:39:39;;;;;;;5.03;3.78;;;18.50;75.80;;;;;;4229831;28;20221;-75
2022/03/09 07:41:41;;;;;;;4.43;3.60;;;18.50;76.00;;;;;;4227302;28;20639;-76
2022/03/09 07:43:44;;;;;;;3.85;3.50;;;18.60;75.80;;;;;;4229063;28;20277;-75
2022/03/09 07:45:46;;;;;;;11.55;4.85;;;18.60;75.80;;;;;;4229562;28;20213;-76
2022/03/09 07:47:49;;;;;;;5.95;5.25;;;18.50;72.50;;;;;;4225149;28;20217;-76
2022/03/09 07:49:52;;;;;;;8.23;5.47;;;18.70;68.40;;;;;;4217887;28;20243;-76
2022/03/09 07:51:55;;;;;;;8.02;4.25;;;18.70;68.80;;;;;;4227201;28;20218;-75
2022/03/09 07:53:57;;;;;;;6.70;5.47;;;18.80;70.70;;;;;;4223473;28;20262;-75
2022/03/09 07:55:59;;;;;;;9.52;5.15;;;19.00;69.00;;;;;;4224591;28;20241;-78
2022/03/09 07:58:02;;;;;;;9.73;5.78;;;19.10;70.00;;;;;;4224114;28;20287;-76
2022/03/09 08:00:06;;;;;;;10.10;5.43;;;19.20;67.30;;;;;;4226996;28;20263;-75
2022/03/09 08:02:08;;;;;;;7.90;6.00;;;19.30;67.10;;;;;;4224611;28;20263;-75
2022/03/09 08:04:11;;;;;;;6.68;5.45;;;19.30;66.50;;;;;;4224616;27;20623;-76
2022/03/09 08:06:14;;;;;;;8.40;5.50;;;19.40;66.50;;;;;;4224859;28;20270;-77
2022/03/09 08:08:17;;;;;;;7.53;5.57;;;19.40;66.60;;;;;;4226492;27;20254;-72
2022/03/09 08:10:20;;;;;;;8.07;6.05;;;19.40;66.40;;;;;;4222833;28;21648;-71
2022/03/09 08:12:23;;;;;;;7.32;5.60;;;19.40;66.00;;;;;;4224289;28;20325;-71
2022/03/09 08:14:27;;;;;;;10.50;5.70;;;19.50;66.60;;;;;;4222399;28;20263;-72
2022/03/09 08:16:29;;;;;;;9.13;5.65;;;19.50;67.60;;;;;;4217614;28;20791;-72
2022/03/09 08:18:35;;;;;;;7.72;5.25;;;19.50;67.30;;;;;;4222161;28;20570;-71
2022/03/09 08:20:37;;;;;;;6.78;4.93;;;19.60;67.50;;;;;;4222951;27;20678;-74
2022/03/09 08:22:42;;;;;;;9.27;5.60;;;19.60;68.20;;;;;;4223361;28;20616;-72
2022/03/09 08:24:44;;;;;;;7.35;5.07;;;19.70;69.10;;;;;;4222404;27;20278;-72
2022/03/09 08:26:47;;;;;;;7.90;5.75;;;19.80;68.10;;;;;;4220681;27;20223;-73
2022/03/09 08:28:49;;;;;;;9.05;5.93;;;19.70;67.80;;;;;;4220396;28;20210;-74
2022/03/09 08:30:52;;;;;;;6.75;4.97;;;19.70;68.10;;;;;;4219495;28;20206;-74
2022/03/09 08:32:54;;;;;;;6.80;5.53;;;19.80;67.70;;;;;;4223811;27;20258;-73
2022/03/09 08:34:56;;;;;;;6.65;5.50;;;19.80;68.70;;;;;;4222058;28;20214;-74
2022/03/09 08:36:59;;;;;;;9.50;5.88;;;19.90;68.80;;;;;;4221447;28;20221;-73
2022/03/09 08:39:02;;;;;;;7.40;5.70;;;19.90;68.30;;;;;;4223734;28;20242;-73
2022/03/09 08:41:05;;;;;;;9.75;5.65;;;20.00;69.10;;;;;;4220466;28;20305;-73
2022/03/09 08:43:07;;;;;;;11.27;5.55;;;20.00;69.40;;;;;;4222013;27;20727;-74
2022/03/09 08:45:10;;;;;;;8.75;6.30;;;20.00;69.30;;;;;;4222388;27;20619;-72
2022/03/09 08:47:12;;;;;;;7.68;5.55;;;20.10;68.50;;;;;;4227037;28;20275;-73
2022/03/09 08:49:15;;;;;;;7.93;5.93;;;20.10;70.10;;;;;;4219793;28;20217;-73
2022/03/09 08:51:20;;;;;;;8.25;5.72;;;20.10;66.90;;;;;;4222856;28;20210;-74
2022/03/09 08:53:23;;;;;;;8.25;5.38;;;20.20;68.90;;;;;;4220981;28;20217;-74
2022/03/09 08:55:27;;;;;;;7.03;5.28;;;20.10;68.10;;;;;;4223886;27;20211;-75
2022/03/09 08:57:29;;;;;;;20.73;6.53;;;20.00;68.20;;;;;;4219163;28;20271;-74
2022/03/09 08:59:32;;;;;;;18.15;6.47;;;20.00;68.20;;;;;;4222516;28;20256;-74
2022/03/09 09:01:34;;;;;;;16.52;6.90;;;20.10;69.40;;;;;;4224157;27;20266;-74
2022/03/09 09:03:36;;;;;;;14.43;6.28;;;20.20;69.80;;;;;;4223887;28;20233;-73
2022/03/09 09:05:39;;;;;;;13.30;6.55;;;20.20;70.20;;;;;;4222818;27;20654;-74
2022/03/09 09:07:41;;;;;;;9.63;5.70;;;20.30;70.50;;;;;;4219812;28;20267;-74
2022/03/09 09:09:43;;;;;;;10.25;5.82;;;20.40;70.50;;;;;;4221961;28;20225;-73
2022/03/09 09:11:48;;;;;;;10.23;6.25;;;20.40;72.20;;;;;;4221238;27;20267;-74
2022/03/09 09:13:50;;;;;;;9.80;7.00;;;20.40;71.20;;;;;;4219691;28;20218;-74
2022/03/09 09:15:52;;;;;;;9.23;6.22;;;20.50;71.40;;;;;;4224860;27;20218;-73
2022/03/09 09:17:57;;;;;;;9.88;6.30;;;20.50;72.60;;;;;;4225302;28;20935;-75
2022/03/09 09:20:00;;;;;;;8.85;6.00;;;20.50;72.50;;;;;;4222581;28;20214;-72
2022/03/09 09:22:03;;;;;;;11.25;6.20;;;20.60;71.00;;;;;;4219245;28;20266;-74
2022/03/09 09:24:07;;;;;;;8.88;5.88;;;20.60;71.70;;;;;;4222663;28;20584;-75
2022/03/09 09:26:09;;;;;;;12.52;7.13;;;20.60;71.30;;;;;;4223863;28;20271;-74
2022/03/09 09:28:13;;;;;;;12.85;6.75;;;20.60;70.60;;;;;;4219084;28;20705;-76
2022/03/09 09:30:15;;;;;;;7.15;5.00;;;20.60;70.60;;;;;;4221483;27;20272;-75
2022/03/09 09:32:17;;;;;;;9.13;6.05;;;20.70;71.80;;;;;;4222558;28;20650;-74
2022/03/09 09:34:20;;;;;;;7.88;6.38;;;20.70;71.00;;;;;;4225202;27;20247;-74
2022/03/09 09:36:22;;;;;;;8.93;6.63;;;20.70;71.50;;;;;;4221804;27;20259;-74
2022/03/09 09:38:25;;;;;;;9.73;6.35;;;20.80;71.40;;;;;;4224473;27;20281;-75
2022/03/09 09:40:30;;;;;;;11.00;6.47;;;20.80;71.60;;;;;;4218121;28;20226;-74
2022/03/09 09:42:32;;;;;;;10.10;5.95;;;20.80;69.50;;;;;;4220622;28;20243;-74
2022/03/09 09:44:42;;;;;;;11.38;6.35;;;20.80;71.40;;;;;;4225451;27;20218;-74
2022/03/09 09:46:45;;;;;;;12.60;6.13;;;20.80;72.40;;;;;;4227484;27;20626;-75
2022/03/09 09:48:49;;;;;;;9.80;5.75;;;20.80;72.70;;;;;;4218328;28;20215;-74
2022/03/09 09:50:54;;;;;;;6.85;5.97;;;20.90;71.00;;;;;;4223449;28;20225;-74
2022/03/09 09:52:56;;;;;;;14.45;6.97;;;20.90;70.60;;;;;;4220416;27;20218;-74
2022/03/09 09:54:59;;;;;;;11.18;7.20;;;20.90;70.50;;;;;;4225889;27;20614;-75
2022/03/09 09:57:02;;;;;;;10.23;6.43;;;21.00;72.00;;;;;;4220744;28;20222;-75
2022/03/09 09:59:05;;;;;;;10.43;6.75;;;20.90;71.10;;;;;;4219530;28;20310;-78
2022/03/09 10:01:09;;;;;;;12.52;6.13;;;20.90;68.80;;;;;;4222453;28;20291;-76
2022/03/09 10:03:12;;;;;;;7.75;5.85;;;21.00;70.60;;;;;;4222745;28;20606;-75
2022/03/09 10:05:16;;;;;;;10.35;5.75;;;21.00;72.20;;;;;;4220692;28;20240;-75
2022/03/09 10:07:19;;;;;;;7.03;5.82;;;21.10;71.50;;;;;;4221264;28;20213;-74
2022/03/09 10:09:21;;;;;;;10.43;5.95;;;21.30;71.80;;;;;;4220654;28;20211;-75
2022/03/09 10:11:24;;;;;;;9.38;5.55;;;21.30;70.30;;;;;;4221366;28;21028;-76
2022/03/09 10:13:29;;;;;;;10.48;6.03;;;21.40;69.50;;;;;;4223167;28;20222;-76
2022/03/09 10:15:32;;;;;;;32.72;7.75;;;21.50;70.60;;;;;;4219500;28;20615;-77
2022/03/09 10:17:36;;;;;;;8.13;5.60;;;21.50;69.20;;;;;;4222658;28;20278;-75
2022/03/09 10:19:40;;;;;;;9.68;5.90;;;21.50;71.10;;;;;;4222414;28;20279;-81
2022/03/09 10:21:43;;;;;;;19.35;7.40;;;21.50;71.20;;;;;;4221834;28;20301;-82
2022/03/09 10:24:01;;;;;;;10.25;6.03;;;21.50;72.00;;;;;;4221165;28;20218;-78
2022/03/09 10:26:03;;;;;;;11.20;5.90;;;21.50;71.60;;;;;;4222809;28;20613;-77
2022/03/09 10:28:08;;;;;;;14.98;6.32;;;21.60;71.40;;;;;;4222061;28;20214;-78
2022/03/09 10:30:12;;;;;;;8.70;5.40;;;21.70;71.30;;;;;;4218828;28;20631;-77
2022/03/09 10:32:15;;;;;;;15.05;6.57;;;21.70;71.40;;;;;;4221304;28;20925;-78
2022/03/09 10:34:22;;;;;;;10.38;5.82;;;21.60;71.40;;;;;;4225675;28;20210;-77
2022/03/09 10:36:24;;;;;;;10.05;5.57;;;21.60;70.60;;;;;;4225804;28;20644;-76
2022/03/09 10:38:30;;;;;;;6.90;5.50;;;21.60;72.80;;;;;;4221851;28;20218;-75
2022/03/09 10:40:39;;;;;;;8.65;5.50;;;21.80;72.60;;;;;;4220642;28;20214;-76